createdAt,value
2019-05-02T00:00:25.408Z,7.83
2019-05-02T00:02:59.746Z,8.40
2019-05-02T00:05:32.036Z,9.10
2019-05-02T00:07:59.855Z,8.70
2019-05-02T00:10:31.090Z,9.80
2019-05-02T00:13:01.610Z,9.60
2019-05-02T00:15:33.171Z,10.27
2019-05-02T00:18:03.752Z,10.37
2019-05-02T00:20:33.851Z,10.53
2019-05-02T00:23:03.807Z,12.53
2019-05-02T00:25:34.537Z,12.00
2019-05-02T00:28:07.833Z,11.63
2019-05-02T00:30:36.293Z,12.50
2019-05-02T00:33:10.379Z,11.83
2019-05-02T00:35:45.531Z,11.80
2019-05-02T00:38:12.439Z,11.80
2019-05-02T00:40:42.655Z,12.73
2019-05-02T00:43:12.559Z,12.70
2019-05-02T00:45:42.789Z,13.57
2019-05-02T00:48:14.447Z,12.90
2019-05-02T00:50:45.448Z,13.10
2019-05-02T00:53:15.703Z,14.33
2019-05-02T00:55:45.758Z,14.10
2019-05-02T00:58:15.798Z,13.13
2019-05-02T01:01:00.990Z,13.20
2019-05-02T01:03:32.872Z,13.90
2019-05-02T01:06:03.071Z,13.83
2019-05-02T01:08:35.647Z,13.73
2019-05-02T01:11:04.658Z,14.80
2019-05-02T01:13:34.653Z,14.13
2019-05-02T01:16:05.697Z,13.90
2019-05-02T01:18:40.907Z,14.23
2019-05-02T01:21:08.763Z,13.87
2019-05-02T01:23:38.818Z,12.90
2019-05-02T01:26:10.549Z,14.67
2019-05-02T01:28:59.547Z,14.23
2019-05-02T01:31:40.294Z,15.67
2019-05-02T01:34:21.282Z,16.30
2019-05-02T01:37:01.938Z,15.33
2019-05-02T01:39:32.157Z,15.97
2019-05-02T01:42:04.219Z,16.43
2019-05-02T01:44:36.507Z,15.70
2019-05-02T01:47:07.229Z,16.73
2019-05-02T01:49:37.251Z,16.00
2019-05-02T01:52:07.450Z,16.40
2019-05-02T01:54:40.801Z,17.07
2019-05-02T01:57:10.010Z,16.37
2019-05-02T01:59:41.308Z,18.33
2019-05-02T02:02:11.347Z,17.03
2019-05-02T02:04:41.431Z,17.23
2019-05-02T02:07:15.041Z,18.73
2019-05-02T02:09:45.809Z,18.33
2019-05-02T02:12:16.179Z,19.53
2019-05-02T02:14:48.027Z,20.93
2019-05-02T02:17:18.060Z,19.73
2019-05-02T02:19:49.721Z,20.33
2019-05-02T02:22:21.340Z,19.37
2019-05-02T02:24:56.033Z,20.73
2019-05-02T02:27:25.729Z,21.13
2019-05-02T02:29:56.840Z,21.77
2019-05-02T02:32:28.665Z,21.67
2019-05-02T02:35:03.506Z,21.20
2019-05-02T02:37:30.474Z,20.53
2019-05-02T02:40:00.593Z,21.33
2019-05-02T02:42:31.705Z,20.57
2019-05-02T02:45:12.573Z,20.27
2019-05-02T02:47:38.419Z,20.63
2019-05-02T02:50:08.467Z,20.90
2019-05-02T02:52:44.491Z,20.50
2019-05-02T02:55:10.487Z,19.13
2019-05-02T02:57:41.568Z,19.90
2019-05-02T03:00:11.769Z,20.50
2019-05-02T03:02:47.548Z,19.67
2019-05-02T03:05:18.907Z,19.17
2019-05-02T03:07:45.398Z,21.20
2019-05-02T03:10:16.647Z,20.67
2019-05-02T03:12:51.266Z,23.03
2019-05-02T03:15:28.108Z,22.80
2019-05-02T03:18:00.104Z,22.10
2019-05-02T03:20:27.257Z,22.70
2019-05-02T03:22:57.467Z,22.43
2019-05-02T03:25:48.959Z,21.17
2019-05-02T03:27:59.878Z,22.17
2019-05-02T03:30:35.254Z,23.27
2019-05-02T03:33:09.707Z,22.67
2019-05-02T03:35:42.538Z,24.07
2019-05-02T03:38:05.532Z,24.13
2019-05-02T03:40:39.287Z,24.77
2019-05-02T03:43:07.773Z,23.40
2019-05-02T03:45:39.827Z,23.17
2019-05-02T03:48:10.445Z,25.37
2019-05-02T03:50:40.651Z,25.47
2019-05-02T03:53:11.118Z,27.00
2019-05-02T03:55:41.297Z,26.63
2019-05-02T03:58:14.080Z,30.73
2019-05-02T04:00:42.955Z,31.10
2019-05-02T04:03:13.082Z,35.10
2019-05-02T04:05:43.303Z,40.83
2019-05-02T04:08:20.538Z,43.93
2019-05-02T04:10:52.917Z,43.80
2019-05-02T04:13:19.708Z,39.30
2019-05-02T04:15:51.397Z,40.00
2019-05-02T04:18:22.387Z,43.20
2019-05-02T04:20:52.195Z,43.07
2019-05-02T04:23:27.830Z,46.03
2019-05-02T04:25:56.119Z,49.80
2019-05-02T04:28:26.343Z,42.30
2019-05-02T04:30:56.772Z,38.57
2019-05-02T04:33:28.985Z,37.90
2019-05-02T04:36:00.011Z,33.50
2019-05-02T04:38:39.116Z,31.63
2019-05-02T04:41:01.759Z,31.60
2019-05-02T04:43:31.983Z,33.80
2019-05-02T04:46:01.972Z,32.93
2019-05-02T04:48:34.545Z,30.17
2019-05-02T04:51:10.136Z,25.90
2019-05-02T04:53:41.075Z,25.07
2019-05-02T04:56:10.110Z,22.83
2019-05-02T04:58:40.465Z,23.17
2019-05-02T05:01:10.110Z,23.40
2019-05-02T05:03:41.712Z,21.90
2019-05-02T05:06:12.434Z,20.77
2019-05-02T05:08:43.079Z,22.03
2019-05-02T05:11:14.021Z,20.23
2019-05-02T05:13:44.758Z,20.30
2019-05-02T05:16:15.669Z,19.83
2019-05-02T05:18:51.241Z,19.00
2019-05-02T05:21:18.398Z,18.80
2019-05-02T05:23:59.632Z,18.27
2019-05-02T05:26:29.170Z,16.20
2019-05-02T05:28:59.385Z,16.50
2019-05-02T05:31:29.426Z,15.67
2019-05-02T05:33:59.628Z,17.77
2019-05-02T05:36:33.891Z,16.33
2019-05-02T05:39:07.257Z,16.43
2019-05-02T05:41:33.977Z,17.17
2019-05-02T05:44:04.204Z,17.40
2019-05-02T05:46:38.685Z,15.80
2019-05-02T05:49:10.544Z,15.73
2019-05-02T05:51:39.218Z,15.87
2019-05-02T05:54:09.269Z,16.77
2019-05-02T05:56:42.835Z,17.47
2019-05-02T05:59:10.935Z,17.23
2019-05-02T06:01:40.935Z,16.93
2019-05-02T06:04:13.918Z,15.93
2019-05-02T06:06:42.838Z,16.77
2019-05-02T06:09:13.923Z,19.00
2019-05-02T06:11:43.801Z,18.63
2019-05-02T06:14:13.808Z,17.40
2019-05-02T06:16:46.794Z,16.70
2019-05-02T06:19:17.822Z,16.43
2019-05-02T06:21:48.225Z,18.03
2019-05-02T06:24:18.464Z,17.63
2019-05-02T06:26:49.957Z,18.97
2019-05-02T06:29:20.939Z,19.07
2019-05-02T06:31:51.181Z,19.17
2019-05-02T06:34:21.300Z,18.13
2019-05-02T06:36:51.414Z,19.37
2019-05-02T06:39:21.427Z,19.13
2019-05-02T06:41:52.036Z,18.93
2019-05-02T06:44:23.824Z,18.53
2019-05-02T06:46:54.224Z,18.33
2019-05-02T06:49:25.992Z,17.33
2019-05-02T06:51:57.554Z,17.77
2019-05-02T06:54:27.855Z,18.40
2019-05-02T06:56:57.496Z,17.70
2019-05-02T06:59:27.383Z,17.50
2019-05-02T07:01:58.682Z,18.37
2019-05-02T07:04:29.008Z,18.07
2019-05-02T07:06:59.927Z,17.17
2019-05-02T07:09:40.380Z,17.10
2019-05-02T07:12:02.064Z,17.90
2019-05-02T07:14:32.076Z,16.50
2019-05-02T07:17:06.590Z,16.40
2019-05-02T07:19:39.381Z,16.30
2019-05-02T07:22:09.507Z,15.30
2019-05-02T07:24:39.408Z,16.57
2019-05-02T07:27:09.521Z,15.83
2019-05-02T07:29:39.651Z,15.13
2019-05-02T07:32:09.944Z,14.33
2019-05-02T07:34:44.278Z,13.57
2019-05-02T07:37:12.602Z,13.13
2019-05-02T07:39:43.403Z,14.03
2019-05-02T07:42:13.828Z,15.70
2019-05-02T07:44:44.428Z,16.00
2019-05-02T07:47:14.368Z,16.33
2019-05-02T07:49:44.574Z,12.27
2019-05-02T07:52:14.605Z,10.23
2019-05-02T07:54:45.252Z,10.43
2019-05-02T07:57:15.142Z,10.90
2019-05-02T07:59:45.772Z,11.23
2019-05-02T08:02:20.105Z,10.53
2019-05-02T08:04:47.439Z,9.23
2019-05-02T08:07:21.076Z,9.27
2019-05-02T08:09:49.138Z,9.23
2019-05-02T08:12:19.256Z,8.70
2019-05-02T08:14:49.235Z,9.23
2019-05-02T08:17:19.332Z,7.93
2019-05-02T08:19:50.712Z,7.67
2019-05-02T08:22:20.729Z,7.77
2019-05-02T08:24:50.742Z,7.87
2019-05-02T08:27:23.131Z,8.43
2019-05-02T08:29:53.807Z,8.20
2019-05-02T08:32:23.752Z,7.60
2019-05-02T08:34:53.563Z,8.20
2019-05-02T08:37:23.484Z,8.10
2019-05-02T08:39:53.712Z,7.53
2019-05-02T08:42:27.760Z,7.30
2019-05-02T08:44:56.353Z,7.70
2019-05-02T08:47:28.456Z,8.40
2019-05-02T08:49:58.787Z,7.60
2019-05-02T08:52:28.695Z,9.03
2019-05-02T08:54:58.913Z,7.63
2019-05-02T08:57:29.965Z,8.13
2019-05-02T09:00:01.481Z,7.17
2019-05-02T09:02:41.206Z,7.87
2019-05-02T09:05:06.135Z,8.30
2019-05-02T09:07:36.972Z,8.07
2019-05-02T09:10:08.800Z,6.97
2019-05-02T09:12:43.748Z,6.83
2019-05-02T09:15:11.821Z,7.23
2019-05-02T09:17:46.557Z,7.50
2019-05-02T09:20:20.234Z,6.87
2019-05-02T09:22:52.168Z,7.53
2019-05-02T09:25:21.818Z,7.80
2019-05-02T09:27:52.636Z,8.13
2019-05-02T09:30:25.871Z,7.47
2019-05-02T09:32:57.249Z,7.57
2019-05-02T09:35:26.397Z,7.27
2019-05-02T09:37:56.283Z,10.73
2019-05-02T09:40:26.218Z,11.47
2019-05-02T09:43:00.121Z,10.80
2019-05-02T09:45:33.487Z,11.90
2019-05-02T09:48:05.131Z,10.33
2019-05-02T09:50:34.805Z,11.03
2019-05-02T09:53:04.607Z,9.70
2019-05-02T09:55:34.712Z,9.17
2019-05-02T09:58:05.173Z,10.00
2019-05-02T10:00:36.897Z,9.47
2019-05-02T10:03:06.916Z,8.63
2019-05-02T10:05:37.373Z,8.43
2019-05-02T10:08:10.916Z,8.70
2019-05-02T10:10:44.263Z,8.30
2019-05-02T10:13:12.178Z,7.50
2019-05-02T10:15:42.626Z,8.30
2019-05-02T10:18:14.583Z,8.97
2019-05-02T10:20:45.010Z,8.87
2019-05-02T10:23:19.709Z,9.37
2019-05-02T10:25:47.945Z,8.03
2019-05-02T10:28:18.032Z,8.43
2019-05-02T10:30:52.747Z,8.87
2019-05-02T10:33:19.801Z,8.53
2019-05-02T10:35:52.507Z,9.43
2019-05-02T10:38:22.745Z,11.43
2019-05-02T10:40:54.744Z,9.90
2019-05-02T10:43:24.667Z,11.00
2019-05-02T10:45:56.687Z,10.33
2019-05-02T10:48:28.615Z,10.33
2019-05-02T10:51:18.993Z,9.97
2019-05-02T10:53:52.700Z,10.40
2019-05-02T10:56:22.125Z,10.60
2019-05-02T10:58:52.410Z,11.10
2019-05-02T11:01:24.170Z,10.43
2019-05-02T11:03:55.710Z,10.50
2019-05-02T11:06:25.788Z,9.93
2019-05-02T11:08:56.162Z,11.03
2019-05-02T11:11:27.611Z,12.40
2019-05-02T11:14:00.858Z,12.97
2019-05-02T11:16:34.799Z,12.20
2019-05-02T11:19:06.758Z,11.13
2019-05-02T11:21:36.956Z,10.40
2019-05-02T11:24:07.408Z,10.23
2019-05-02T11:26:37.522Z,10.27
2019-05-02T11:29:07.758Z,10.83
2019-05-02T11:31:38.086Z,10.63
2019-05-02T11:34:08.092Z,10.10
2019-05-02T11:36:38.204Z,10.83
2019-05-02T11:39:18.422Z,9.63
2019-05-02T11:41:42.249Z,11.20
2019-05-02T11:44:12.154Z,10.23
2019-05-02T11:46:46.756Z,11.13
2019-05-02T11:49:14.034Z,9.40
2019-05-02T11:51:47.021Z,10.03
2019-05-02T11:54:15.999Z,10.27
2019-05-02T11:56:48.956Z,10.00
2019-05-02T11:59:22.705Z,11.17
2019-05-02T12:01:57.667Z,9.83
2019-05-02T12:04:22.011Z,9.80
2019-05-02T12:07:00.897Z,9.40
2019-05-02T12:09:23.542Z,9.70
2019-05-02T12:11:56.644Z,9.13
2019-05-02T12:14:27.422Z,9.67
2019-05-02T12:16:56.072Z,9.37
2019-05-02T12:19:26.202Z,9.87
2019-05-02T12:21:57.632Z,8.60
2019-05-02T12:24:27.657Z,8.63
2019-05-02T12:26:57.662Z,8.67
2019-05-02T12:29:29.833Z,8.47
2019-05-02T12:32:17.247Z,8.40
2019-05-02T12:34:47.363Z,9.40
2019-05-02T12:37:17.386Z,7.07
2019-05-02T12:39:48.380Z,7.70
2019-05-02T12:42:18.828Z,11.57
2019-05-02T12:44:49.288Z,7.97
2019-05-02T12:47:19.495Z,6.77
2019-05-02T12:49:51.689Z,7.50
2019-05-02T12:52:22.578Z,6.20
2019-05-02T12:54:52.831Z,6.43
2019-05-02T12:57:22.832Z,7.10
2019-05-02T12:59:52.865Z,6.47
2019-05-02T13:02:33.836Z,8.27
2019-05-02T13:05:04.142Z,7.20
2019-05-02T13:07:34.057Z,6.93
2019-05-02T13:10:05.192Z,7.53
2019-05-02T13:12:41.413Z,7.10
2019-05-02T13:15:12.827Z,7.90
2019-05-02T13:17:48.735Z,8.50
2019-05-02T13:20:16.329Z,9.37
2019-05-02T13:22:48.908Z,9.00
2019-05-02T13:25:22.482Z,8.40
2019-05-02T13:27:52.731Z,8.63
2019-05-02T13:30:24.075Z,9.00
2019-05-02T13:32:57.877Z,9.90
2019-05-02T13:35:31.792Z,8.37
2019-05-02T13:38:02.709Z,9.00
2019-05-02T13:40:34.600Z,9.27
2019-05-02T13:43:04.483Z,9.70
2019-05-02T13:45:42.173Z,9.23
2019-05-02T13:48:12.616Z,8.83
2019-05-02T13:50:42.724Z,8.00
2019-05-02T13:53:13.162Z,8.83
2019-05-02T13:55:44.811Z,8.03
2019-05-02T13:58:14.827Z,7.70
2019-05-02T14:00:48.317Z,8.17
2019-05-02T14:03:19.469Z,7.77
2019-05-02T14:05:53.163Z,7.33
2019-05-02T14:08:35.406Z,7.90
2019-05-02T14:11:02.214Z,8.27
2019-05-02T14:13:33.309Z,7.13
2019-05-02T14:16:03.588Z,7.47
2019-05-02T14:18:33.706Z,7.57
2019-05-02T14:21:04.099Z,7.57
2019-05-02T14:23:34.140Z,7.67
2019-05-02T14:26:04.244Z,8.00
2019-05-02T14:28:36.303Z,8.10
2019-05-02T14:31:06.139Z,9.13
2019-05-02T14:33:37.661Z,8.17
2019-05-02T14:36:07.695Z,9.03
2019-05-02T14:38:37.720Z,7.63
2019-05-02T14:41:09.449Z,9.00
2019-05-02T14:43:55.662Z,8.50
2019-05-02T14:46:35.346Z,7.80
2019-05-02T14:48:58.249Z,8.87
2019-05-02T14:51:28.380Z,8.70
2019-05-02T14:54:03.656Z,8.43
2019-05-02T14:56:46.302Z,8.10
2019-05-02T14:59:15.297Z,8.33
2019-05-02T15:01:47.016Z,9.27
2019-05-02T15:04:17.072Z,9.00
2019-05-02T15:06:47.553Z,9.37
2019-05-02T15:09:22.662Z,9.43
2019-05-02T15:12:02.358Z,8.77
2019-05-02T15:14:34.669Z,9.30
2019-05-02T15:17:12.782Z,10.10
2019-05-02T15:19:48.239Z,9.07
2019-05-02T15:22:18.460Z,10.30
2019-05-02T15:24:48.963Z,9.40
2019-05-02T15:27:18.576Z,10.37
2019-05-02T15:29:48.481Z,9.87
2019-05-02T15:32:25.956Z,9.80
2019-05-02T15:35:02.418Z,10.23
2019-05-02T15:37:35.697Z,10.47
2019-05-02T15:42:38.305Z,10.80
2019-05-02T15:45:09.346Z,10.57
2019-05-02T15:47:41.596Z,10.67
2019-05-02T15:50:21.895Z,10.43
2019-05-02T15:52:49.439Z,11.57
2019-05-02T15:55:19.551Z,13.20
2019-05-02T15:57:49.412Z,13.00
2019-05-02T16:00:27.985Z,18.40
2019-05-02T16:03:02.870Z,15.00
2019-05-02T16:05:31.902Z,12.03
2019-05-02T16:08:08.222Z,13.60
2019-05-02T16:10:38.607Z,13.73
2019-05-02T16:13:08.778Z,11.73
2019-05-02T16:15:37.398Z,11.97
2019-05-02T16:18:07.607Z,10.97
2019-05-02T16:21:04.210Z,12.50
2019-05-02T16:23:29.449Z,10.07
2019-05-02T16:25:56.935Z,12.03
2019-05-02T16:28:26.556Z,14.63
2019-05-02T16:30:58.274Z,12.37
2019-05-02T16:33:28.293Z,11.53
2019-05-02T16:35:58.201Z,10.73
2019-05-02T16:38:33.682Z,9.83
2019-05-02T16:41:04.010Z,9.37
2019-05-02T16:43:32.807Z,9.80
2019-05-02T16:46:06.634Z,9.70
2019-05-02T16:48:37.613Z,8.10
2019-05-02T16:51:08.218Z,8.53
2019-05-02T16:53:36.798Z,8.03
2019-05-02T16:56:07.233Z,10.07
2019-05-02T16:58:38.064Z,12.60
2019-05-02T17:01:09.707Z,9.03
2019-05-02T17:03:39.843Z,9.07
2019-05-02T17:06:09.860Z,9.33
2019-05-02T17:08:57.417Z,9.07
2019-05-02T17:11:34.177Z,9.20
2019-05-02T17:14:07.087Z,8.50
2019-05-02T17:16:34.486Z,9.50
2019-05-02T17:19:04.813Z,8.30
2019-05-02T17:21:52.452Z,7.30
2019-05-02T17:24:06.679Z,8.20
2019-05-02T17:26:36.824Z,6.90
2019-05-02T17:29:07.018Z,8.77
2019-05-02T17:31:37.035Z,8.30
2019-05-02T17:34:07.580Z,7.77
2019-05-02T17:36:42.657Z,8.83
2019-05-02T17:39:12.642Z,7.77
2019-05-02T17:41:45.702Z,7.83
2019-05-02T17:44:19.915Z,8.03
2019-05-02T17:46:50.764Z,7.93
2019-05-02T17:49:18.010Z,7.50
2019-05-02T17:52:11.337Z,7.37
2019-05-02T17:54:38.572Z,8.10
2019-05-02T17:57:08.650Z,9.03
2019-05-02T17:59:38.849Z,10.10
2019-05-02T18:02:12.289Z,10.83
2019-05-02T18:04:46.707Z,10.30
2019-05-02T18:07:14.440Z,10.10
2019-05-02T18:09:44.442Z,10.77
2019-05-02T18:12:16.200Z,10.07
2019-05-02T18:14:46.015Z,8.93
2019-05-02T18:17:16.033Z,7.90
2019-05-02T18:19:46.048Z,7.30
2019-05-02T18:22:23.563Z,8.63
2019-05-02T18:24:47.837Z,8.60
2019-05-02T18:27:17.731Z,8.17
2019-05-02T18:29:47.865Z,7.97
2019-05-02T18:32:24.499Z,7.50
2019-05-02T18:34:49.408Z,7.27
2019-05-02T18:37:19.443Z,9.03
2019-05-02T18:39:53.347Z,7.77
2019-05-02T18:42:25.287Z,7.53
2019-05-02T18:44:54.283Z,7.57
2019-05-02T18:47:24.834Z,7.63
2019-05-02T18:50:00.830Z,7.73
2019-05-02T18:52:36.461Z,7.47
2019-05-02T18:55:01.663Z,7.33
2019-05-02T18:57:31.938Z,8.17
2019-05-02T19:00:01.973Z,7.63
2019-05-02T19:02:35.595Z,7.93
2019-05-02T19:05:11.610Z,7.90
2019-05-02T19:07:39.342Z,7.47
2019-05-02T19:10:09.821Z,7.70
2019-05-02T19:12:41.909Z,7.87
2019-05-02T19:15:11.874Z,8.53
2019-05-02T19:17:48.867Z,8.57
2019-05-02T19:20:22.068Z,8.10
2019-05-02T19:22:56.358Z,8.10
2019-05-02T19:25:22.757Z,8.07
2019-05-02T19:27:57.574Z,9.33
2019-05-02T19:30:32.630Z,8.90
2019-05-02T19:33:07.658Z,10.10
2019-05-02T19:35:37.564Z,9.03
2019-05-02T19:38:06.389Z,9.27
2019-05-02T19:40:36.520Z,9.77
2019-05-02T19:43:07.855Z,8.97
2019-05-02T19:45:39.709Z,9.03
2019-05-02T19:48:09.129Z,9.30
2019-05-02T19:50:43.717Z,9.47
2019-05-02T19:53:18.023Z,9.63
2019-05-02T19:55:43.259Z,8.10
2019-05-02T19:58:13.280Z,9.03
2019-05-02T20:00:46.213Z,9.50
2019-05-02T20:03:21.652Z,8.97
2019-05-02T20:05:48.422Z,9.27
2019-05-02T20:08:21.356Z,9.07
2019-05-02T20:10:56.701Z,9.30
2019-05-02T20:13:29.646Z,9.63
2019-05-02T20:16:05.679Z,8.73
2019-05-02T20:18:42.414Z,9.43
2019-05-02T20:21:23.527Z,9.40
2019-05-02T20:23:47.092Z,9.37
2019-05-02T20:26:17.153Z,9.50
2019-05-02T20:28:48.331Z,9.60
2019-05-02T20:31:18.311Z,9.00
2019-05-02T20:33:48.657Z,9.60
2019-05-02T20:36:18.812Z,9.70
2019-05-02T20:39:06.668Z,10.17
2019-05-02T20:41:37.764Z,10.37
2019-05-02T20:44:08.360Z,9.37
2019-05-02T20:46:38.572Z,9.40
2019-05-02T20:49:08.793Z,9.77
2019-05-02T20:51:39.512Z,9.40
2019-05-02T20:54:15.269Z,10.70
2019-05-02T20:56:47.643Z,9.23
2019-05-02T20:59:18.882Z,9.67
2019-05-02T21:01:49.016Z,9.63
2019-05-02T21:04:19.973Z,10.37
2019-05-02T21:06:54.972Z,10.27
2019-05-02T21:09:42.920Z,9.80
2019-05-02T21:12:13.712Z,10.23
2019-05-02T21:14:44.491Z,10.17
2019-05-02T21:17:14.600Z,10.53
2019-05-02T21:19:44.512Z,12.10
2019-05-02T21:22:17.399Z,11.43
2019-05-02T21:24:49.153Z,11.73
2019-05-02T21:27:20.007Z,14.00
2019-05-02T21:29:52.271Z,12.77
2019-05-02T21:32:23.017Z,12.53
2019-05-02T21:34:54.454Z,11.50
2019-05-02T21:37:24.660Z,11.83
2019-05-02T21:39:54.858Z,10.93
2019-05-02T21:42:25.078Z,11.37
2019-05-02T21:44:55.431Z,11.23
2019-05-02T21:47:25.415Z,10.77
2019-05-02T21:49:56.991Z,9.93
2019-05-02T21:52:28.631Z,10.53
2019-05-02T21:55:12.423Z,10.37
2019-05-02T21:57:42.321Z,10.10
2019-05-02T22:00:16.716Z,10.00
2019-05-02T22:02:48.256Z,11.03
2019-05-02T22:05:18.451Z,9.83
2019-05-02T22:07:48.511Z,10.47
2019-05-02T22:10:18.488Z,11.37
2019-05-02T22:12:48.703Z,11.80
2019-05-02T22:15:18.724Z,13.53
2019-05-02T22:17:48.969Z,13.23
2019-05-02T22:20:18.873Z,15.00
2019-05-02T22:22:48.999Z,14.03
2019-05-02T22:25:19.119Z,14.60
2019-05-02T22:27:49.333Z,15.17
2019-05-02T22:30:19.359Z,15.73
2019-05-02T22:32:49.578Z,16.53
2019-05-02T22:35:21.590Z,18.40
2019-05-02T22:37:52.586Z,17.27
2019-05-02T22:40:23.799Z,15.13
2019-05-02T22:42:53.859Z,13.90
2019-05-02T22:45:23.855Z,13.47
2019-05-02T22:47:53.826Z,11.93
2019-05-02T22:50:23.787Z,12.20
2019-05-02T22:52:53.995Z,11.73
2019-05-02T22:55:24.054Z,13.50
2019-05-02T22:57:54.256Z,12.80
2019-05-02T23:00:24.231Z,12.23
2019-05-02T23:02:54.364Z,14.33
2019-05-02T23:05:24.497Z,14.57
2019-05-02T23:07:54.720Z,15.03
2019-05-02T23:10:24.987Z,15.97
2019-05-02T23:12:55.155Z,19.50
2019-05-02T23:15:25.062Z,18.83
2019-05-02T23:17:55.087Z,18.97
2019-05-02T23:20:25.068Z,17.57
2019-05-02T23:22:55.142Z,17.33
2019-05-02T23:25:43.155Z,15.70
2019-05-02T23:28:15.983Z,14.03
2019-05-02T23:30:46.028Z,13.03
2019-05-02T23:33:16.057Z,13.13
2019-05-02T23:35:47.096Z,13.63
2019-05-02T23:38:17.211Z,12.43
2019-05-02T23:40:47.280Z,12.87
2019-05-02T23:43:17.303Z,12.73
2019-05-02T23:45:47.242Z,13.63
2019-05-02T23:48:17.596Z,13.30
2019-05-02T23:50:47.804Z,14.10
2019-05-02T23:53:17.947Z,13.97
2019-05-02T23:55:47.915Z,12.70
2019-05-02T23:58:17.949Z,12.43
